Massillon, Ohio
Current Conditions -  °F | °C
As of 3:51 AM on Friday 19 Dec 2014 (Local Time) from KCAK Reporting Station
Light Snow Light Snow  
Wind Chill: 21°   Ceiling: 500
Heat Index: 29°   Visibility: 3mi
Dew Point: 26°   Wind: 8mph
Humidity: 89%   Direction: 280°W
Pressure: 30.16"   Gusts: NA
Location:  40.79°N, 81.52°W
Report Text: KCAK 190851Z 28007KT 3SM -SN BR OVC005 M02/M03 A3016 RMK AO2 FZDZE51 SLP227 P0000 60000 T10171033 53004
Loading
Personal Weather Stations






























Interactive Weather Map New forecast layout! Learn more

10-Day Weather Forecast

Advertisements
Track Severe Weather on mobile